Monday, November 24, 2014, 2:56 PM EST

KRIC, Richmond International Airport

Location: Sandston, VA, United States Lat: 37.517
Local Time: 2:56 PM EST (19:56 GMT) Lon: -77.317
Time Zone: US/Eastern Elev: 167 ft

Show me the last for .
Show Decoded

2014-11-24 13:54 METAR KRIC 241854Z 19018G28KT 10SM FEW035 SCT300 23/13 A2968 =
2014-11-24 12:54 METAR KRIC 241754Z 19021G28KT 10SM FEW035 23/13 A2970 RMK AO2 PK WND 20031/1713
                 SLP061 T02330128 10233 20183 58022 =
2014-11-24 11:54 METAR KRIC 241654Z 20020G27KT 10SM FEW034 22/13 A2972 RMK AO2 PK WND 20029/1558
                 SLP068 T02220133 =
2014-11-24 10:54 METAR KRIC 241554Z 21023G31KT 10SM SCT029 21/13 A2976 =
2014-11-24 09:54 METAR KRIC 241454Z 21016G23KT 10SM SCT024 20/14 A2977 RMK AO2 PK WND 18028/1414
                 SLP084 T02000144 51016 =
2014-11-24 08:54 METAR KRIC 241354Z 21015KT 10SM SCT022 19/15 A2976 RMK AO2 PK WND 20026/1329
                 SLP083 T01940150 =
2014-11-24 08:28 METAR KRIC 241328Z 20014G23KT 10SM SCT022 19/15 A2976 RMK AO2 =
2014-11-24 07:54 METAR KRIC 241254Z 21016KT 10SM BKN022 19/16 A2974 =
2014-11-24 07:36 METAR KRIC 241236Z 21016KT 10SM BKN024 19/16 A2974 RMK AO2 =
2014-11-24 06:54 METAR KRIC 241154Z 20015KT 10SM SCT021 19/16 A2972 RMK AO2 SLP068 60003 70032
                 T01890156 10200 20178 53001 =
2014-11-24 05:54 METAR KRIC 241054Z 19012KT 10SM FEW019 19/16 A2971 =
2014-11-24 04:54 METAR KRIC 240954Z 18013KT 10SM SCT017 BKN023 19/17 A2971 =
2014-11-24 04:51 METAR KRIC 240951Z 18013G20KT 10SM FEW014 SCT020 19/17 A2971 RMK AO2 =
2014-11-24 03:54 METAR KRIC 240854Z 19015G22KT 10SM BKN012 OVC021 19/17 A2972 RMK AO2 PK WND
                 18026/0841 SLP067 60003 T01940172 56004 =
2014-11-24 02:54 METAR KRIC 240754Z 17019G26KT 10SM BKN010 OVC016 19/17 A2972 =
2014-11-24 01:54 METAR KRIC 240654Z 16014G23KT 10SM OVC010 18/17 A2970 =
2014-11-24 01:08 METAR KRIC 240608Z 16019G28KT 8SM RA OVC008 18/17 A2971 RMK AO2 PK WND
                 15028/0606 CIG 007V013 P0001 =
2014-11-24 00:54 METAR KRIC 240554Z 16017G22KT 10SM -RA OVC010 18/16 A2973 =
2014-11-24 00:40 METAR KRIC 240540Z 17013G18KT 10SM -RA OVC010 17/16 A2975 RMK AO2 CIG 006V013
                 P0005 =
2014-11-23 23:54 METAR KRIC 240454Z 15013G21KT 6SM -RA BR OVC006 16/14 A2978 RMK AO2 SLP089 P0007
                 T01610144 401610011 =
2014-11-23 22:54 METAR KRIC 240354Z 14015G21KT 4SM -RA BR BKN006 OVC012 16/14 A2983 RMK AO2
                 SLP107 P0011 T01560139 =
2014-11-23 22:35 METAR KRIC 240335Z 14014KT 4SM RA BR BKN007 BKN023 OVC038 15/14 A2985 RMK AO2
                 P0004 =
2014-11-23 22:15 METAR KRIC 240315Z 14015KT 4SM -RA BR BKN012 BKN022 OVC030 15/13 A2987 RMK AO2
                 CIG 008V015 P0001 =
2014-11-23 21:54 METAR KRIC 240254Z 13010KT 6SM -RA BR FEW008 BKN018 BKN035 14/13 A2988 =
2014-11-23 20:54 METAR KRIC 240154Z 12007KT 9SM FEW005 BKN027 OVC045 13/12 A2995 RMK AO2 RAE53
                 SLP145 P0000 T01280117 =
2014-11-23 20:32 METAR KRIC 240132Z 11007KT 6SM -RA BR SCT005 BKN018 BKN031 13/11 A2996 RMK AO2
                 P0000 =
2014-11-23 19:54 METAR KRIC 240054Z 12007KT 7SM -RA SCT005 SCT015 OVC031 13/11 A2999 =
2014-11-23 19:39 METAR KRIC 240039Z 12006KT 6SM -RA BR BKN006 BKN015 OVC024 12/11 A2999 RMK AO2
                 P0001 =
2014-11-23 19:07 METAR KRIC 240007Z COR 12010KT 5SM -RA BR FEW009 BKN014 OVC025 12/10 A3001 =
2014-11-23 18:54 METAR KRIC 232354Z 12009KT 10SM -RA BKN024 OVC038 13/09 A3001 =
2014-11-23 18:08 METAR KRIC 232308Z 10003KT 10SM -RA SCT022 OVC048 12/07 A3004 RMK AO2 P0000 =
2014-11-23 17:54 METAR KRIC 232254Z 11004KT 10SM -RA BKN023 BKN038 OVC050 12/07 A3005 RMK AO2
                 SLP182 CIG 018V026 P0000 T01170072 =
2014-11-23 17:42 METAR KRIC 232242Z 10004KT 10SM -RA BKN025 BKN048 OVC120 12/07 A3006 RMK AO2
                 P0000 =
2014-11-23 16:54 METAR KRIC 232154Z 08003KT 10SM -RA FEW030 SCT050 OVC120 12/07 A3007 RMK AO2
                 RAB47 SLP189 P0000 T01220067 =
2014-11-23 15:54 METAR KRIC 232054Z 13003KT 10SM BKN033 BKN050 OVC120 13/06 A3010 RMK AO2 SLP198
                 T01330061 56025 =

Support USWX by starting your Amazon purchase here.